sensor_id;sensor_type;location;lat;lon;timestamp;temperature;humidity
4411;DHT22;2218;51.408;7.208;2023-12-20T00:01:57;19.40;41.10
4411;DHT22;2218;51.408;7.208;2023-12-20T00:04:25;19.40;41.10
4411;DHT22;2218;51.408;7.208;2023-12-20T00:06:52;19.40;41.10
4411;DHT22;2218;51.408;7.208;2023-12-20T00:09:19;19.40;41.10
4411;DHT22;2218;51.408;7.208;2023-12-20T00:11:46;19.40;41.10
4411;DHT22;2218;51.408;7.208;2023-12-20T00:14:14;19.40;41.20
4411;DHT22;2218;51.408;7.208;2023-12-20T00:16:41;19.40;41.20
4411;DHT22;2218;51.408;7.208;2023-12-20T00:19:08;19.30;41.10
4411;DHT22;2218;51.408;7.208;2023-12-20T00:21:35;19.30;41.10
4411;DHT22;2218;51.408;7.208;2023-12-20T00:24:02;19.30;41.10
4411;DHT22;2218;51.408;7.208;2023-12-20T00:26:29;19.30;41.20
4411;DHT22;2218;51.408;7.208;2023-12-20T00:28:56;19.30;41.10
4411;DHT22;2218;51.408;7.208;2023-12-20T00:31:25;19.30;41.20
4411;DHT22;2218;51.408;7.208;2023-12-20T00:33:51;19.30;41.20
4411;DHT22;2218;51.408;7.208;2023-12-20T00:36:18;19.30;41.20
4411;DHT22;2218;51.408;7.208;2023-12-20T00:38:45;19.30;41.20
4411;DHT22;2218;51.408;7.208;2023-12-20T00:41:13;19.30;41.20
4411;DHT22;2218;51.408;7.208;2023-12-20T00:43:40;19.20;41.20
4411;DHT22;2218;51.408;7.208;2023-12-20T00:46:08;19.20;41.20
4411;DHT22;2218;51.408;7.208;2023-12-20T00:48:36;19.30;41.30
4411;DHT22;2218;51.408;7.208;2023-12-20T00:51:03;19.20;41.20
4411;DHT22;2218;51.408;7.208;2023-12-20T00:53:30;19.20;41.20
4411;DHT22;2218;51.408;7.208;2023-12-20T00:55:57;19.20;41.20
4411;DHT22;2218;51.408;7.208;2023-12-20T00:58:24;19.20;41.20
4411;DHT22;2218;51.408;7.208;2023-12-20T01:00:52;19.20;41.30
4411;DHT22;2218;51.408;7.208;2023-12-20T01:03:19;19.20;41.20
4411;DHT22;2218;51.408;7.208;2023-12-20T01:05:47;19.10;41.20
4411;DHT22;2218;51.408;7.208;2023-12-20T01:08:14;19.10;41.20
4411;DHT22;2218;51.408;7.208;2023-12-20T01:10:41;19.10;41.70
4411;DHT22;2218;51.408;7.208;2023-12-20T01:13:08;19.10;41.20
4411;DHT22;2218;51.408;7.208;2023-12-20T01:15:35;19.10;41.20
4411;DHT22;2218;51.408;7.208;2023-12-20T01:18:03;19.10;41.20
4411;DHT22;2218;51.408;7.208;2023-12-20T01:20:31;19.10;41.20
4411;DHT22;2218;51.408;7.208;2023-12-20T01:22:59;19.10;41.20
4411;DHT22;2218;51.408;7.208;2023-12-20T01:25:27;19.10;41.20
4411;DHT22;2218;51.408;7.208;2023-12-20T01:27:54;19.10;41.20
4411;DHT22;2218;51.408;7.208;2023-12-20T01:30:21;19.10;41.20
4411;DHT22;2218;51.408;7.208;2023-12-20T01:32:47;19.10;41.20
4411;DHT22;2218;51.408;7.208;2023-12-20T01:35:14;19.00;41.10
4411;DHT22;2218;51.408;7.208;2023-12-20T01:37:41;19.00;41.10
4411;DHT22;2218;51.408;7.208;2023-12-20T01:40:10;19.10;41.10
4411;DHT22;2218;51.408;7.208;2023-12-20T01:42:37;19.00;41.10
4411;DHT22;2218;51.408;7.208;2023-12-20T01:45:05;19.00;41.00
4411;DHT22;2218;51.408;7.208;2023-12-20T01:47:32;19.00;41.10
4411;DHT22;2218;51.408;7.208;2023-12-20T01:49:59;19.00;41.00
4411;DHT22;2218;51.408;7.208;2023-12-20T01:52:29;19.00;41.00
4411;DHT22;2218;51.408;7.208;2023-12-20T01:54:58;19.00;41.00
4411;DHT22;2218;51.408;7.208;2023-12-20T01:57:29;19.00;41.00
4411;DHT22;2218;51.408;7.208;2023-12-20T01:59:57;19.00;41.00
4411;DHT22;2218;51.408;7.208;2023-12-20T02:02:26;19.00;41.00
4411;DHT22;2218;51.408;7.208;2023-12-20T02:04:54;19.00;41.00
4411;DHT22;2218;51.408;7.208;2023-12-20T02:07:22;19.00;41.00
4411;DHT22;2218;51.408;7.208;2023-12-20T02:09:50;18.90;40.90
4411;DHT22;2218;51.408;7.208;2023-12-20T02:12:17;18.90;40.90
4411;DHT22;2218;51.408;7.208;2023-12-20T02:14:46;18.90;40.80
4411;DHT22;2218;51.408;7.208;2023-12-20T02:17:13;18.90;40.90
4411;DHT22;2218;51.408;7.208;2023-12-20T02:19:40;18.90;40.80
4411;DHT22;2218;51.408;7.208;2023-12-20T02:22:10;18.90;40.80
4411;DHT22;2218;51.408;7.208;2023-12-20T02:24:37;18.90;40.80
4411;DHT22;2218;51.408;7.208;2023-12-20T02:27:06;18.90;40.80
4411;DHT22;2218;51.408;7.208;2023-12-20T02:29:35;18.90;40.80
4411;DHT22;2218;51.408;7.208;2023-12-20T02:32:03;18.90;40.80
4411;DHT22;2218;51.408;7.208;2023-12-20T02:34:30;18.90;40.70
4411;DHT22;2218;51.408;7.208;2023-12-20T02:36:57;18.80;41.20
4411;DHT22;2218;51.408;7.208;2023-12-20T02:39:26;18.80;40.70
4411;DHT22;2218;51.408;7.208;2023-12-20T02:41:53;18.80;40.60
4411;DHT22;2218;51.408;7.208;2023-12-20T02:44:20;18.90;40.70
4411;DHT22;2218;51.408;7.208;2023-12-20T02:46:47;18.90;40.60
4411;DHT22;2218;51.408;7.208;2023-12-20T02:49:14;18.90;40.40
4411;DHT22;2218;51.408;7.208;2023-12-20T02:51:41;19.00;40.40
4411;DHT22;2218;51.408;7.208;2023-12-20T02:54:08;19.00;40.20
4411;DHT22;2218;51.408;7.208;2023-12-20T02:56:36;19.00;40.10
4411;DHT22;2218;51.408;7.208;2023-12-20T02:59:04;19.10;40.10
4411;DHT22;2218;51.408;7.208;2023-12-20T03:01:34;19.10;40.10
4411;DHT22;2218;51.408;7.208;2023-12-20T03:04:01;19.10;40.00
4411;DHT22;2218;51.408;7.208;2023-12-20T03:06:28;19.10;39.90
4411;DHT22;2218;51.408;7.208;2023-12-20T03:08:56;19.20;40.00
4411;DHT22;2218;51.408;7.208;2023-12-20T03:11:26;19.20;40.00
4411;DHT22;2218;51.408;7.208;2023-12-20T03:13:55;19.20;39.90
4411;DHT22;2218;51.408;7.208;2023-12-20T03:16:22;19.20;39.90
4411;DHT22;2218;51.408;7.208;2023-12-20T03:18:49;19.20;39.80
4411;DHT22;2218;51.408;7.208;2023-12-20T03:21:16;19.20;39.80
4411;DHT22;2218;51.408;7.208;2023-12-20T03:23:43;19.20;39.70
4411;DHT22;2218;51.408;7.208;2023-12-20T03:26:10;19.20;39.70
4411;DHT22;2218;51.408;7.208;2023-12-20T03:28:37;19.20;39.70
4411;DHT22;2218;51.408;7.208;2023-12-20T03:31:05;19.20;39.70
4411;DHT22;2218;51.408;7.208;2023-12-20T03:33:32;19.20;39.60
4411;DHT22;2218;51.408;7.208;2023-12-20T03:35:59;19.30;39.60
4411;DHT22;2218;51.408;7.208;2023-12-20T03:38:26;19.20;39.50
4411;DHT22;2218;51.408;7.208;2023-12-20T03:40:53;19.30;39.60
4411;DHT22;2218;51.408;7.208;2023-12-20T03:43:20;19.30;39.50
4411;DHT22;2218;51.408;7.208;2023-12-20T03:45:48;19.30;39.60
4411;DHT22;2218;51.408;7.208;2023-12-20T03:48:16;19.30;39.50
4411;DHT22;2218;51.408;7.208;2023-12-20T03:50:43;19.30;39.50
4411;DHT22;2218;51.408;7.208;2023-12-20T03:53:10;19.30;39.50
4411;DHT22;2218;51.408;7.208;2023-12-20T03:55:37;19.30;39.40
4411;DHT22;2218;51.408;7.208;2023-12-20T03:58:04;19.30;39.40
4411;DHT22;2218;51.408;7.208;2023-12-20T04:00:31;19.30;39.40
4411;DHT22;2218;51.408;7.208;2023-12-20T04:02:58;19.30;39.40
4411;DHT22;2218;51.408;7.208;2023-12-20T04:05:27;19.30;39.80
4411;DHT22;2218;51.408;7.208;2023-12-20T04:07:54;19.30;39.30
4411;DHT22;2218;51.408;7.208;2023-12-20T04:10:21;19.30;39.30
4411;DHT22;2218;51.408;7.208;2023-12-20T04:12:48;19.30;39.30
4411;DHT22;2218;51.408;7.208;2023-12-20T04:15:15;19.30;39.20
4411;DHT22;2218;51.408;7.208;2023-12-20T04:17:42;19.30;39.20
4411;DHT22;2218;51.408;7.208;2023-12-20T04:20:09;19.30;39.20
4411;DHT22;2218;51.408;7.208;2023-12-20T04:22:38;19.30;39.10
4411;DHT22;2218;51.408;7.208;2023-12-20T04:25:05;19.30;39.10
4411;DHT22;2218;51.408;7.208;2023-12-20T04:27:33;19.30;39.10
4411;DHT22;2218;51.408;7.208;2023-12-20T04:30:00;19.30;39.10
4411;DHT22;2218;51.408;7.208;2023-12-20T04:32:27;19.30;39.00
4411;DHT22;2218;51.408;7.208;2023-12-20T04:34:54;19.30;39.00
4411;DHT22;2218;51.408;7.208;2023-12-20T04:37:20;19.30;39.00
4411;DHT22;2218;51.408;7.208;2023-12-20T04:39:48;19.30;38.90
4411;DHT22;2218;51.408;7.208;2023-12-20T04:42:15;19.30;38.90
4411;DHT22;2218;51.408;7.208;2023-12-20T04:44:42;19.30;38.90
4411;DHT22;2218;51.408;7.208;2023-12-20T04:47:10;19.30;39.00
4411;DHT22;2218;51.408;7.208;2023-12-20T04:49:37;19.30;38.90
4411;DHT22;2218;51.408;7.208;2023-12-20T04:52:04;19.30;38.90
4411;DHT22;2218;51.408;7.208;2023-12-20T04:54:32;19.30;38.80
4411;DHT22;2218;51.408;7.208;2023-12-20T04:57:00;19.30;38.80
4411;DHT22;2218;51.408;7.208;2023-12-20T04:59:27;19.30;38.80
4411;DHT22;2218;51.408;7.208;2023-12-20T05:01:54;19.30;38.80
4411;DHT22;2218;51.408;7.208;2023-12-20T05:04:21;19.30;38.80
4411;DHT22;2218;51.408;7.208;2023-12-20T05:06:49;19.30;38.70
4411;DHT22;2218;51.408;7.208;2023-12-20T05:09:16;19.30;38.70
4411;DHT22;2218;51.408;7.208;2023-12-20T05:11:43;19.30;38.70
4411;DHT22;2218;51.408;7.208;2023-12-20T05:14:11;19.30;38.70
4411;DHT22;2218;51.408;7.208;2023-12-20T05:16:38;19.30;38.70
4411;DHT22;2218;51.408;7.208;2023-12-20T05:19:05;19.30;38.60
4411;DHT22;2218;51.408;7.208;2023-12-20T05:21:32;19.40;38.70
4411;DHT22;2218;51.408;7.208;2023-12-20T05:23:59;19.40;38.60
4411;DHT22;2218;51.408;7.208;2023-12-20T05:26:27;19.40;38.60
4411;DHT22;2218;51.408;7.208;2023-12-20T05:28:55;19.40;38.60
4411;DHT22;2218;51.408;7.208;2023-12-20T05:31:24;19.40;38.50
4411;DHT22;2218;51.408;7.208;2023-12-20T05:33:51;19.40;38.50
4411;DHT22;2218;51.408;7.208;2023-12-20T05:36:18;19.40;38.40
4411;DHT22;2218;51.408;7.208;2023-12-20T05:38:45;19.40;38.40
4411;DHT22;2218;51.408;7.208;2023-12-20T05:41:12;19.50;38.50
4411;DHT22;2218;51.408;7.208;2023-12-20T05:43:40;19.50;38.40
4411;DHT22;2218;51.408;7.208;2023-12-20T05:46:07;19.50;38.40
4411;DHT22;2218;51.408;7.208;2023-12-20T05:48:38;19.50;38.30
4411;DHT22;2218;51.408;7.208;2023-12-20T05:51:05;19.50;38.30
4411;DHT22;2218;51.408;7.208;2023-12-20T05:53:32;19.50;38.30
4411;DHT22;2218;51.408;7.208;2023-12-20T05:55:59;19.50;38.20
4411;DHT22;2218;51.408;7.208;2023-12-20T05:58:26;19.50;38.20
4411;DHT22;2218;51.408;7.208;2023-12-20T06:00:53;19.50;38.20
4411;DHT22;2218;51.408;7.208;2023-12-20T06:03:20;19.50;38.20
4411;DHT22;2218;51.408;7.208;2023-12-20T06:05:48;19.50;38.10
4411;DHT22;2218;51.408;7.208;2023-12-20T06:08:15;19.60;38.20
4411;DHT22;2218;51.408;7.208;2023-12-20T06:10:42;19.60;38.10
4411;DHT22;2218;51.408;7.208;2023-12-20T06:13:09;19.60;38.10
4411;DHT22;2218;51.408;7.208;2023-12-20T06:15:38;19.60;38.10
4411;DHT22;2218;51.408;7.208;2023-12-20T06:18:05;19.60;38.10
4411;DHT22;2218;51.408;7.208;2023-12-20T06:20:33;19.60;38.00
4411;DHT22;2218;51.408;7.208;2023-12-20T06:23:01;19.60;38.50
4411;DHT22;2218;51.408;7.208;2023-12-20T06:25:28;19.60;37.90
4411;DHT22;2218;51.408;7.208;2023-12-20T06:27:55;19.60;37.90
4411;DHT22;2218;51.408;7.208;2023-12-20T06:30:22;19.60;37.90
4411;DHT22;2218;51.408;7.208;2023-12-20T06:32:51;19.60;37.90
4411;DHT22;2218;51.408;7.208;2023-12-20T06:35:18;19.60;37.80
4411;DHT22;2218;51.408;7.208;2023-12-20T06:37:45;19.60;37.80
4411;DHT22;2218;51.408;7.208;2023-12-20T06:40:13;19.70;37.90
4411;DHT22;2218;51.408;7.208;2023-12-20T06:42:41;19.60;37.70
4411;DHT22;2218;51.408;7.208;2023-12-20T06:45:09;19.70;37.80
4411;DHT22;2218;51.408;7.208;2023-12-20T06:47:37;19.70;37.70
4411;DHT22;2218;51.408;7.208;2023-12-20T06:50:05;19.70;37.60
4411;DHT22;2218;51.408;7.208;2023-12-20T06:52:33;19.70;37.90
4411;DHT22;2218;51.408;7.208;2023-12-20T06:55:01;19.70;37.80
4411;DHT22;2218;51.408;7.208;2023-12-20T06:57:31;19.70;37.70
4411;DHT22;2218;51.408;7.208;2023-12-20T06:59:57;19.70;37.50
4411;DHT22;2218;51.408;7.208;2023-12-20T07:02:24;19.70;37.20
4411;DHT22;2218;51.408;7.208;2023-12-20T07:04:55;19.80;37.60
4411;DHT22;2218;51.408;7.208;2023-12-20T07:07:21;19.80;37.10
4411;DHT22;2218;51.408;7.208;2023-12-20T07:09:49;19.80;37.30
4411;DHT22;2218;51.408;7.208;2023-12-20T07:12:16;19.80;37.20
4411;DHT22;2218;51.408;7.208;2023-12-20T07:14:46;19.80;37.20
4411;DHT22;2218;51.408;7.208;2023-12-20T07:17:13;19.80;37.00
4411;DHT22;2218;51.408;7.208;2023-12-20T07:19:41;19.80;37.10
4411;DHT22;2218;51.408;7.208;2023-12-20T07:22:08;19.80;37.00
4411;DHT22;2218;51.408;7.208;2023-12-20T07:24:35;19.90;37.20
4411;DHT22;2218;51.408;7.208;2023-12-20T07:27:02;19.90;37.10
4411;DHT22;2218;51.408;7.208;2023-12-20T07:29:29;19.90;37.00
4411;DHT22;2218;51.408;7.208;2023-12-20T07:31:57;19.90;36.70
4411;DHT22;2218;51.408;7.208;2023-12-20T07:34:25;19.90;36.70
4411;DHT22;2218;51.408;7.208;2023-12-20T07:36:52;19.90;36.80
4411;DHT22;2218;51.408;7.208;2023-12-20T07:39:19;19.90;36.90
4411;DHT22;2218;51.408;7.208;2023-12-20T07:41:46;19.90;36.40
4411;DHT22;2218;51.408;7.208;2023-12-20T07:44:13;19.90;36.60
4411;DHT22;2218;51.408;7.208;2023-12-20T07:46:41;20.00;36.90
4411;DHT22;2218;51.408;7.208;2023-12-20T07:49:09;20.00;36.10
4411;DHT22;2218;51.408;7.208;2023-12-20T07:51:36;20.00;36.00
4411;DHT22;2218;51.408;7.208;2023-12-20T07:54:03;20.00;36.10
4411;DHT22;2218;51.408;7.208;2023-12-20T07:56:30;20.10;36.00
4411;DHT22;2218;51.408;7.208;2023-12-20T07:58:57;20.10;36.10
4411;DHT22;2218;51.408;7.208;2023-12-20T08:01:24;20.10;36.10
4411;DHT22;2218;51.408;7.208;2023-12-20T08:03:51;20.10;36.30
4411;DHT22;2218;51.408;7.208;2023-12-20T08:06:19;20.10;36.40
4411;DHT22;2218;51.408;7.208;2023-12-20T08:08:46;20.10;36.50
4411;DHT22;2218;51.408;7.208;2023-12-20T08:11:14;20.00;36.40
4411;DHT22;2218;51.408;7.208;2023-12-20T08:13:41;20.10;36.40
4411;DHT22;2218;51.408;7.208;2023-12-20T08:16:08;20.10;36.40
4411;DHT22;2218;51.408;7.208;2023-12-20T08:18:35;20.10;36.40
4411;DHT22;2218;51.408;7.208;2023-12-20T08:21:02;20.10;36.40
4411;DHT22;2218;51.408;7.208;2023-12-20T08:23:31;20.10;36.30
4411;DHT22;2218;51.408;7.208;2023-12-20T08:25:58;20.10;36.30
4411;DHT22;2218;51.408;7.208;2023-12-20T08:28:29;20.10;36.20
4411;DHT22;2218;51.408;7.208;2023-12-20T08:30:56;20.10;36.20
4411;DHT22;2218;51.408;7.208;2023-12-20T08:33:23;20.20;36.50
4411;DHT22;2218;51.408;7.208;2023-12-20T08:35:50;20.20;36.60
4411;DHT22;2218;51.408;7.208;2023-12-20T08:38:17;20.20;36.30
4411;DHT22;2218;51.408;7.208;2023-12-20T08:40:46;20.30;36.30
4411;DHT22;2218;51.408;7.208;2023-12-20T08:43:14;20.30;36.10
4411;DHT22;2218;51.408;7.208;2023-12-20T08:45:40;20.30;35.90
4411;DHT22;2218;51.408;7.208;2023-12-20T08:48:08;20.30;35.90
4411;DHT22;2218;51.408;7.208;2023-12-20T08:50:35;20.30;36.00
4411;DHT22;2218;51.408;7.208;2023-12-20T08:53:02;20.30;36.00
4411;DHT22;2218;51.408;7.208;2023-12-20T08:55:29;20.30;36.00
4411;DHT22;2218;51.408;7.208;2023-12-20T08:57:59;20.30;35.90
4411;DHT22;2218;51.408;7.208;2023-12-20T09:00:26;20.30;35.80
4411;DHT22;2218;51.408;7.208;2023-12-20T09:02:53;20.30;35.90
4411;DHT22;2218;51.408;7.208;2023-12-20T09:05:20;20.30;36.00
4411;DHT22;2218;51.408;7.208;2023-12-20T09:07:47;20.30;36.00
4411;DHT22;2218;51.408;7.208;2023-12-20T09:10:14;20.20;35.90
4411;DHT22;2218;51.408;7.208;2023-12-20T09:12:41;20.30;36.10
4411;DHT22;2218;51.408;7.208;2023-12-20T09:15:10;20.30;36.00
4411;DHT22;2218;51.408;7.208;2023-12-20T09:17:37;20.30;36.00
4411;DHT22;2218;51.408;7.208;2023-12-20T09:20:04;20.30;36.10
4411;DHT22;2218;51.408;7.208;2023-12-20T09:22:33;20.30;36.00
4411;DHT22;2218;51.408;7.208;2023-12-20T09:25:02;20.30;36.00
4411;DHT22;2218;51.408;7.208;2023-12-20T09:27:30;20.30;36.00
4411;DHT22;2218;51.408;7.208;2023-12-20T09:29:56;20.30;36.00
4411;DHT22;2218;51.408;7.208;2023-12-20T09:32:26;20.30;36.00
4411;DHT22;2218;51.408;7.208;2023-12-20T09:34:53;20.30;36.00
4411;DHT22;2218;51.408;7.208;2023-12-20T09:37:20;20.30;36.10
4411;DHT22;2218;51.408;7.208;2023-12-20T09:39:47;20.30;36.20
4411;DHT22;2218;51.408;7.208;2023-12-20T09:42:16;20.30;36.00
4411;DHT22;2218;51.408;7.208;2023-12-20T09:44:51;20.40;36.10
4411;DHT22;2218;51.408;7.208;2023-12-20T09:47:20;20.40;36.20
4411;DHT22;2218;51.408;7.208;2023-12-20T09:49:51;20.40;36.10
4411;DHT22;2218;51.408;7.208;2023-12-20T09:52:19;20.40;36.10
4411;DHT22;2218;51.408;7.208;2023-12-20T09:54:49;20.40;36.10
4411;DHT22;2218;51.408;7.208;2023-12-20T09:57:21;20.30;36.10
4411;DHT22;2218;51.408;7.208;2023-12-20T09:59:48;20.40;36.30
4411;DHT22;2218;51.408;7.208;2023-12-20T10:02:16;20.40;36.10
4411;DHT22;2218;51.408;7.208;2023-12-20T10:04:52;20.40;36.20
4411;DHT22;2218;51.408;7.208;2023-12-20T10:07:19;20.40;36.10
4411;DHT22;2218;51.408;7.208;2023-12-20T10:09:48;20.50;36.20
4411;DHT22;2218;51.408;7.208;2023-12-20T10:12:17;20.50;36.20
4411;DHT22;2218;51.408;7.208;2023-12-20T10:14:44;20.50;36.00
4411;DHT22;2218;51.408;7.208;2023-12-20T10:17:11;20.50;36.10
4411;DHT22;2218;51.408;7.208;2023-12-20T10:19:38;20.40;36.00
4411;DHT22;2218;51.408;7.208;2023-12-20T10:22:06;20.40;36.10
4411;DHT22;2218;51.408;7.208;2023-12-20T10:24:33;20.40;36.10
4411;DHT22;2218;51.408;7.208;2023-12-20T10:27:04;20.40;36.00
4411;DHT22;2218;51.408;7.208;2023-12-20T10:29:32;20.40;36.00
4411;DHT22;2218;51.408;7.208;2023-12-20T10:32:21;20.40;36.00
4411;DHT22;2218;51.408;7.208;2023-12-20T10:34:49;20.40;35.70
4411;DHT22;2218;51.408;7.208;2023-12-20T10:37:18;20.40;35.60
4411;DHT22;2218;51.408;7.208;2023-12-20T10:39:49;20.40;35.60
4411;DHT22;2218;51.408;7.208;2023-12-20T10:42:21;20.40;35.70
4411;DHT22;2218;51.408;7.208;2023-12-20T10:44:49;20.40;35.80
4411;DHT22;2218;51.408;7.208;2023-12-20T10:47:17;20.50;35.80
4411;DHT22;2218;51.408;7.208;2023-12-20T10:49:45;20.50;35.90
4411;DHT22;2218;51.408;7.208;2023-12-20T10:52:13;20.50;35.80
4411;DHT22;2218;51.408;7.208;2023-12-20T10:54:42;20.50;35.70
4411;DHT22;2218;51.408;7.208;2023-12-20T10:57:09;20.60;35.80
4411;DHT22;2218;51.408;7.208;2023-12-20T10:59:37;20.60;35.70
4411;DHT22;2218;51.408;7.208;2023-12-20T11:02:05;20.60;35.50
4411;DHT22;2218;51.408;7.208;2023-12-20T11:04:39;20.60;34.70
4411;DHT22;2218;51.408;7.208;2023-12-20T11:25:51;20.70;35.00
4411;DHT22;2218;51.408;7.208;2023-12-20T11:28:21;20.70;34.90
4411;DHT22;2218;51.408;7.208;2023-12-20T11:30:51;20.70;35.00
4411;DHT22;2218;51.408;7.208;2023-12-20T11:33:22;20.80;35.10
4411;DHT22;2218;51.408;7.208;2023-12-20T11:35:50;20.80;35.10
4411;DHT22;2218;51.408;7.208;2023-12-20T11:38:20;20.80;35.20
4411;DHT22;2218;51.408;7.208;2023-12-20T11:40:49;20.80;35.30
4411;DHT22;2218;51.408;7.208;2023-12-20T11:43:30;20.90;35.30
4411;DHT22;2218;51.408;7.208;2023-12-20T11:46:04;20.80;35.60
4411;DHT22;2218;51.408;7.208;2023-12-20T11:48:35;20.90;35.80
4411;DHT22;2218;51.408;7.208;2023-12-20T11:51:09;20.90;35.60
4411;DHT22;2218;51.408;7.208;2023-12-20T11:53:36;20.90;35.60
4411;DHT22;2218;51.408;7.208;2023-12-20T11:56:06;20.90;35.60
4411;DHT22;2218;51.408;7.208;2023-12-20T11:58:33;20.90;35.50
4411;DHT22;2218;51.408;7.208;2023-12-20T12:01:01;20.90;35.60
4411;DHT22;2218;51.408;7.208;2023-12-20T12:03:30;21.00;35.60
4411;DHT22;2218;51.408;7.208;2023-12-20T12:05:57;20.90;35.50
4411;DHT22;2218;51.408;7.208;2023-12-20T12:08:26;20.90;35.50
4411;DHT22;2218;51.408;7.208;2023-12-20T12:10:53;21.00;35.60
4411;DHT22;2218;51.408;7.208;2023-12-20T12:13:22;21.00;35.60
4411;DHT22;2218;51.408;7.208;2023-12-20T12:15:53;21.00;35.60
4411;DHT22;2218;51.408;7.208;2023-12-20T12:18:20;21.10;35.60
4411;DHT22;2218;51.408;7.208;2023-12-20T12:20:47;21.10;35.60
4411;DHT22;2218;51.408;7.208;2023-12-20T12:23:14;21.10;36.00
4411;DHT22;2218;51.408;7.208;2023-12-20T12:25:50;21.00;35.90
4411;DHT22;2218;51.408;7.208;2023-12-20T12:28:17;21.00;36.10
4411;DHT22;2218;51.408;7.208;2023-12-20T12:30:56;21.10;36.80
4411;DHT22;2218;51.408;7.208;2023-12-20T12:33:24;21.10;36.30
4411;DHT22;2218;51.408;7.208;2023-12-20T12:35:52;21.10;36.40
4411;DHT22;2218;51.408;7.208;2023-12-20T12:38:20;21.10;36.50
4411;DHT22;2218;51.408;7.208;2023-12-20T12:40:47;21.10;36.60
4411;DHT22;2218;51.408;7.208;2023-12-20T12:43:15;21.10;36.70
4411;DHT22;2218;51.408;7.208;2023-12-20T12:45:42;21.10;36.70
4411;DHT22;2218;51.408;7.208;2023-12-20T12:48:10;21.10;35.40
4411;DHT22;2218;51.408;7.208;2023-12-20T12:50:37;21.00;35.10
4411;DHT22;2218;51.408;7.208;2023-12-20T12:53:04;21.00;35.10
4411;DHT22;2218;51.408;7.208;2023-12-20T12:55:32;21.00;35.20
4411;DHT22;2218;51.408;7.208;2023-12-20T12:57:59;21.00;35.40
4411;DHT22;2218;51.408;7.208;2023-12-20T13:00:26;21.00;35.40
4411;DHT22;2218;51.408;7.208;2023-12-20T13:02:53;21.00;36.00
4411;DHT22;2218;51.408;7.208;2023-12-20T13:05:21;21.00;36.10
4411;DHT22;2218;51.408;7.208;2023-12-20T13:07:48;21.10;36.30
4411;DHT22;2218;51.408;7.208;2023-12-20T13:10:16;21.10;36.30
4411;DHT22;2218;51.408;7.208;2023-12-20T13:12:43;21.10;36.40
4411;DHT22;2218;51.408;7.208;2023-12-20T13:15:10;21.10;36.60
4411;DHT22;2218;51.408;7.208;2023-12-20T13:17:37;21.10;36.50
4411;DHT22;2218;51.408;7.208;2023-12-20T13:20:06;21.10;36.20
4411;DHT22;2218;51.408;7.208;2023-12-20T13:22:35;21.10;35.80
4411;DHT22;2218;51.408;7.208;2023-12-20T13:25:03;21.00;35.30
4411;DHT22;2218;51.408;7.208;2023-12-20T13:27:30;21.00;35.40
4411;DHT22;2218;51.408;7.208;2023-12-20T13:29:58;21.10;36.40
4411;DHT22;2218;51.408;7.208;2023-12-20T13:32:26;21.10;36.30
4411;DHT22;2218;51.408;7.208;2023-12-20T13:34:53;21.10;36.30
4411;DHT22;2218;51.408;7.208;2023-12-20T13:37:20;21.10;36.40
4411;DHT22;2218;51.408;7.208;2023-12-20T13:39:48;21.10;36.40
4411;DHT22;2218;51.408;7.208;2023-12-20T13:42:15;21.20;36.60
4411;DHT22;2218;51.408;7.208;2023-12-20T13:44:42;21.20;36.70
4411;DHT22;2218;51.408;7.208;2023-12-20T13:47:09;21.20;36.80
4411;DHT22;2218;51.408;7.208;2023-12-20T13:49:36;21.20;36.90
4411;DHT22;2218;51.408;7.208;2023-12-20T13:52:03;21.20;37.40
4411;DHT22;2218;51.408;7.208;2023-12-20T13:54:30;21.20;36.90
4411;DHT22;2218;51.408;7.208;2023-12-20T13:56:59;21.20;37.00
4411;DHT22;2218;51.408;7.208;2023-12-20T13:59:25;21.20;37.00
4411;DHT22;2218;51.408;7.208;2023-12-20T14:01:52;21.20;37.10
4411;DHT22;2218;51.408;7.208;2023-12-20T14:04:20;21.20;37.10
4411;DHT22;2218;51.408;7.208;2023-12-20T14:06:47;21.20;37.10
4411;DHT22;2218;51.408;7.208;2023-12-20T14:09:16;21.20;37.10
4411;DHT22;2218;51.408;7.208;2023-12-20T14:11:43;21.20;37.10
4411;DHT22;2218;51.408;7.208;2023-12-20T14:14:11;21.30;37.30
4411;DHT22;2218;51.408;7.208;2023-12-20T14:16:38;21.30;37.30
4411;DHT22;2218;51.408;7.208;2023-12-20T14:19:05;21.30;37.30
4411;DHT22;2218;51.408;7.208;2023-12-20T14:21:35;21.30;37.40
4411;DHT22;2218;51.408;7.208;2023-12-20T14:24:03;21.30;37.40
4411;DHT22;2218;51.408;7.208;2023-12-20T14:26:33;21.30;37.50
4411;DHT22;2218;51.408;7.208;2023-12-20T14:28:59;21.30;37.40
4411;DHT22;2218;51.408;7.208;2023-12-20T14:31:28;21.30;37.50
4411;DHT22;2218;51.408;7.208;2023-12-20T14:33:55;21.30;37.70
4411;DHT22;2218;51.408;7.208;2023-12-20T14:36:23;21.30;37.80
4411;DHT22;2218;51.408;7.208;2023-12-20T14:38:50;21.30;37.70
4411;DHT22;2218;51.408;7.208;2023-12-20T14:41:17;21.30;37.80
4411;DHT22;2218;51.408;7.208;2023-12-20T14:43:44;21.30;37.80
4411;DHT22;2218;51.408;7.208;2023-12-20T14:46:13;21.30;37.90
4411;DHT22;2218;51.408;7.208;2023-12-20T14:48:42;21.30;37.90
4411;DHT22;2218;51.408;7.208;2023-12-20T14:51:09;21.30;38.00
4411;DHT22;2218;51.408;7.208;2023-12-20T14:53:37;21.30;38.00
4411;DHT22;2218;51.408;7.208;2023-12-20T14:56:04;21.40;38.20
4411;DHT22;2218;51.408;7.208;2023-12-20T14:58:33;21.40;38.20
4411;DHT22;2218;51.408;7.208;2023-12-20T15:01:00;21.40;38.10
4411;DHT22;2218;51.408;7.208;2023-12-20T15:03:27;21.40;38.10
4411;DHT22;2218;51.408;7.208;2023-12-20T15:05:56;21.30;38.00
4411;DHT22;2218;51.408;7.208;2023-12-20T15:08:24;21.40;38.00
4411;DHT22;2218;51.408;7.208;2023-12-20T15:10:51;21.40;38.00
4411;DHT22;2218;51.408;7.208;2023-12-20T15:13:18;21.30;37.70
4411;DHT22;2218;51.408;7.208;2023-12-20T15:15:46;21.30;37.60
4411;DHT22;2218;51.408;7.208;2023-12-20T15:18:13;21.30;37.50
4411;DHT22;2218;51.408;7.208;2023-12-20T15:20:40;21.30;37.50
4411;DHT22;2218;51.408;7.208;2023-12-20T15:23:10;21.40;37.40
4411;DHT22;2218;51.408;7.208;2023-12-20T15:25:37;21.30;37.40
4411;DHT22;2218;51.408;7.208;2023-12-20T15:28:04;21.30;37.80
4411;DHT22;2218;51.408;7.208;2023-12-20T15:30:32;21.40;38.20
4411;DHT22;2218;51.408;7.208;2023-12-20T15:33:01;21.40;37.70
4411;DHT22;2218;51.408;7.208;2023-12-20T15:35:30;21.30;37.60
4411;DHT22;2218;51.408;7.208;2023-12-20T15:37:57;21.30;37.50
4411;DHT22;2218;51.408;7.208;2023-12-20T15:40:26;21.30;37.50
4411;DHT22;2218;51.408;7.208;2023-12-20T15:42:53;21.40;37.50
4411;DHT22;2218;51.408;7.208;2023-12-20T15:45:21;21.40;37.50
4411;DHT22;2218;51.408;7.208;2023-12-20T15:47:47;21.30;37.40
4411;DHT22;2218;51.408;7.208;2023-12-20T15:50:14;21.30;37.40
4411;DHT22;2218;51.408;7.208;2023-12-20T15:52:42;21.40;37.50
4411;DHT22;2218;51.408;7.208;2023-12-20T15:55:09;21.30;37.40
4411;DHT22;2218;51.408;7.208;2023-12-20T15:57:37;21.30;37.40
4411;DHT22;2218;51.408;7.208;2023-12-20T16:00:06;21.40;37.50
4411;DHT22;2218;51.408;7.208;2023-12-20T16:02:35;21.40;36.80
4411;DHT22;2218;51.408;7.208;2023-12-20T16:05:02;21.30;37.10
4411;DHT22;2218;51.408;7.208;2023-12-20T16:07:29;21.30;37.20
4411;DHT22;2218;51.408;7.208;2023-12-20T16:09:55;21.30;37.20
4411;DHT22;2218;51.408;7.208;2023-12-20T16:12:23;21.30;37.20
4411;DHT22;2218;51.408;7.208;2023-12-20T16:14:52;21.30;37.20
4411;DHT22;2218;51.408;7.208;2023-12-20T16:17:20;21.30;37.30
4411;DHT22;2218;51.408;7.208;2023-12-20T16:19:47;21.30;37.30
4411;DHT22;2218;51.408;7.208;2023-12-20T16:22:13;21.30;37.30
4411;DHT22;2218;51.408;7.208;2023-12-20T16:24:40;21.30;37.30